Latest Coastal Weather Observations for Lady Elliot Island

IDQ60701

Issued at 11:32 am EST Friday 26 August 2016 (issued every 10 minutes, with the page automatically refreshed every 10 minutes)

About coastal observations | Map of coastal stations | Coastal observations for QLD | Marine services | Other Formats
Station Details ID: 039059 Name: LADY ELLIOT ISLAND Lat: -24.11 Lon: 152.72 Height: 3.6 m
Data from the previous 72 hours. | See also: Recent months at Lady Elliot Island
Date/Time
EST
Temp
°C
Wind Pressure Rain since
9am
mm
Weather Cloud Vis
km
Sea
Height
m
Swell
Dir  Spd
kts
Gust
kts
hPa Trend Height
m
Period
s
Dir
26/11:30am 17.6 S 13 19 1016.8 - 0.2 - - - - - - -
26/11:00am 17.4 S 13 18 1017.0 - 0.2 - - - - - - -
26/10:30am 16.8 S 11 16 1017.5 - 0.2 - - - - - - -
26/10:00am 16.9 S 12 18 1017.7 - 0.2 - - - - - - -
26/09:30am 16.7 S 14 22 1017.3 - 0.2 - - - - - - -
26/09:00am 16.5 S 14 22 1017.6 - 0.4 - - - - - - -
26/08:30am 16.6 S 16 22 1017.8 - 0.4 - - - - - - -
26/08:00am 16.1 SSW 16 23 1017.9 - 0.4 - - - - - - -
26/07:30am 16.4 SSW 17 24 1017.7 - 0.4 - - - - - - -
26/07:00am 16.2 SSW 16 23 1017.4 - 0.4 - - - - - - -
26/06:30am 16.1 S 16 23 1016.8 - 0.4 - - - - - - -
26/06:00am 16.4 S 15 21 1016.7 - 0.4 - - - - - - -
26/05:30am 16.4 S 17 24 1016.0 - 0.4 - - - - - - -
26/05:00am 16.6 S 15 22 1015.7 - 0.4 - - - - - - -
26/04:30am 16.9 S 16 23 1015.7 - 0.4 - - - - - - -
26/04:00am 17.2 S 15 22 1015.2 - 0.4 - - - - - - -
26/03:30am 17.4 S 14 23 1015.0 - 0.4 - - - - - - -
26/03:00am 17.4 S 14 21 1014.9 - 0.4 - - - - - - -
26/02:30am 17.6 SSW 15 21 1015.2 - 0.4 - - - - - - -
26/02:00am 17.7 S 14 19 1015.0 - 0.4 - - - - - - -
26/01:30am 17.9 S 15 21 1015.1 - 0.4 - - - - - - -
26/01:00am 18.2 S 15 21 1015.1 - 0.4 - - - - - - -
26/12:30am 18.8 S 13 18 1015.5 - 0.4 - - - - - - -
26/12:00am 19.1 S 12 17 1015.7 - 0.4 - - - - - - -
 
Date/Time
EST
Temp
°C
Wind Pressure Rain since
9am
mm
Weather Cloud Vis
km
Sea
Height
m
Swell
Dir  Spd
kts
Gust
kts
hPa Trend Height
m
Period
s
Dir
25/11:30pm 19.5 SW 5 8 1015.5 - 0.4 - - - - - - -
25/11:00pm 19.2 SW 4 6 1015.3 - 0.4 - - - - - - -
25/10:30pm 19.0 WSW 4 6 1015.1 - 0.4 - - - - - - -
25/10:00pm 19.1 W 3 5 1015.4 - 0.4 - - - - - - -
25/09:30pm 19.1 W 4 5 1015.2 - 0.4 - - - - - - -
25/09:00pm 19.1 WNW 4 6 1015.0 - 0.4 - - - - - - -
25/08:30pm 19.2 NW 5 7 1015.0 - 0.4 - - - - - - -
25/08:00pm 19.3 NW 5 7 1014.8 - 0.4 - - - - - - -
25/07:30pm 19.4 NNW 6 9 1014.8 - 0.4 - - - - - - -
25/07:00pm 19.2 NNW 5 7 1014.2 - 0.4 - - - - - - -
25/06:30pm 19.3 NNW 6 8 1013.8 - 0.4 - - - - - - -
25/06:00pm 19.0 N 5 8 1013.4 - 0.4 - - - - - - -
25/05:30pm 18.9 NNW 5 6 1013.0 - 0.4 - - - - - - -
25/05:00pm 18.6 WNW 2 4 1012.6 - 0.4 - - - - - - -
25/04:30pm 18.8 SSW 3 4 1012.1 - 0.4 - - - - - - -
25/04:00pm 19.0 SW 3 6 1011.9 - 0.4 - - - - - - -
25/03:30pm 19.2 SW 5 7 1011.8 - 0.4 - - - - - - -
25/03:00pm 19.0 SSW 5 7 1011.6 - 0.4 - - - - - - -
25/02:30pm 18.4 SW 5 8 1011.9 - 0.4 - - - - - - -
25/02:00pm 18.1 SSW 7 9 1011.4 - 0.4 - - - - - - -
25/01:30pm 18.1 SSW 7 13 1011.9 - 0.4 - - - - - - -
25/01:00pm 18.2 SSW 8 12 1012.4 - 0.4 - - - - - - -
25/12:30pm 18.1 SSW 9 12 1012.2 - 0.4 - - - - - - -
25/12:00pm 17.7 SW 9 16 1012.8 - 0.2 Rain - - - - - -
25/11:30am 17.9 SSW 10 16 1013.0 - 0.0 - - - - - - -
25/11:00am 18.3 SW 11 15 1013.7 - 0.0 - - - - - - -
25/10:30am 18.6 SW 10 16 1013.8 - 0.0 - - - - - - -
25/10:00am 19.1 SW 9 12 1013.7 - 0.0 - - - - - - -
25/09:30am 19.2 SW 8 13 1013.4 - 0.0 - - - - - - -
25/09:00am 19.1 WSW 10 15 1013.9 - 1.8 Rain - - - - - -
25/08:30am 19.6 WNW 11 15 1013.3 - 1.6 - - - - - - -
25/08:00am 19.9 WNW 9 12 1013.0 - 1.6 - - - - - - -
25/07:30am 19.8 NW 9 13 1012.3 - 1.6 - - - - - - -
25/07:00am 19.8 WNW 10 14 1012.4 - 1.6 - - - - - - -
25/06:30am 19.8 NW 10 14 1012.1 - 1.6 - - - - - - -
25/06:00am 19.6 WNW 11 14 1011.5 - 1.6 Recent precip. - - - - - -
25/05:30am 19.5 NW 11 15 1011.2 - 1.6 - - - - - - -
25/05:00am 19.6 WNW 13 17 1011.3 - 1.4 - - - - - - -
25/04:30am 19.8 WNW 13 19 1011.7 - 1.4 - - - - - - -
25/04:00am 19.5 WNW 14 19 1011.0 - 1.2 - - - - - - -
25/03:30am 19.7 WNW 15 19 1011.1 - 1.0 - - - - - - -
25/03:00am 19.6 WNW 12 16 1010.4 - 1.0 - - - - - - -
25/02:30am 19.6 WNW 10 14 1010.3 - 1.0 - - - - - - -
25/02:00am 19.4 NW 8 11 1010.2 - 1.0 - - - - - - -
25/01:30am 19.4 WNW 10 13 1010.9 - 1.0 - - - - - - -
25/01:00am 19.4 NW 11 17 1011.3 - 1.0 - - - - - - -
25/12:30am 19.8 NW 11 18 1011.9 - 0.8 - - - - - - -
25/12:00am 20.0 WNW 12 16 1012.2 - 0.6 Rain - - - - - -
 
Date/Time
EST
Temp
°C
Wind Pressure Rain since
9am
mm
Weather Cloud Vis
km
Sea
Height
m
Swell
Dir  Spd
kts
Gust
kts
hPa Trend Height
m
Period
s
Dir
24/11:30pm 21.3 W 7 11 1011.1 - 0.2 - - - - - - -
24/11:00pm 21.8 W 8 13 1011.4 - 0.2 - - - - - - -
24/10:30pm 21.8 NW 5 6 1010.6 - 0.2 - - - - - - -
24/10:00pm 21.8 WNW 7 9 1010.5 - 0.2 - - - - - - -
24/09:30pm 21.7 NW 3 6 1010.5 - 0.2 - - - - - - -
24/09:00pm 21.7 NW 5 6 1010.4 - 0.2 - - - - - - -
24/08:30pm 21.6 NW 4 7 1010.6 - 0.2 - - - - - - -
24/08:00pm 21.4 W 4 6 1010.8 - 0.2 - - - - - - -
24/07:30pm 21.6 W 4 6 1010.7 - 0.2 - - - - - - -
24/07:00pm 21.7 WSW 5 7 1010.7 - 0.2 - - - - - - -
24/06:30pm 21.5 W 6 10 1010.3 - 0.2 - - - - - - -
24/06:00pm 21.6 W 7 10 1009.6 - 0.2 - - - - - - -
24/05:30pm 21.2 WSW 9 14 1009.4 - 0.2 - - - - - - -
24/05:00pm 21.6 W 11 19 1009.2 - 0.2 - - - - - - -
24/04:30pm 23.1 NW 11 15 1008.5 - 0.0 - - - - - - -
24/04:00pm 24.1 NW 11 16 1008.3 - 0.0 - - - - - - -
24/03:30pm 24.0 NW 11 16 1007.8 - 0.0 - - - - - - -
24/03:00pm 24.4 NW 12 17 1007.7 - 0.0 - - - - - - -
24/02:30pm 24.3 NW 13 18 1008.0 - 0.0 - - - - - - -
24/02:00pm 24.6 NW 13 19 1007.9 - 0.0 - - - - - - -
24/01:30pm 24.5 NW 12 20 1008.0 - 0.0 - - - - - - -
24/01:00pm 24.8 NW 13 20 1008.3 - 0.0 - - - - - - -
24/12:30pm 24.5 NW 11 19 1008.8 - 0.0 - - - - - - -
24/12:00pm 24.2 NNW 17 22 1009.0 - 0.0 - - - - - - -
24/11:30am 24.2 NNW 16 21 1009.6 - 0.0 - - - - - - -
24/11:00am 24.0 NNW 17 21 1010.2 - 0.0 - - - - - - -
24/10:30am 23.2 NNW 14 18 1010.7 - 0.0 - - - - - - -
24/10:00am 23.4 N 13 17 1011.0 - 0.0 - - - - - - -
24/09:30am 23.7 N 16 21 1011.1 - 0.0 - - - - - - -
24/09:00am 23.5 N 13 18 1011.0 - 1.6 - - - - - - -
24/08:30am 22.9 N 15 21 1010.9 - 1.6 - - - - - - -
24/08:00am 23.1 N 16 20 1010.8 - 1.6 - - - - - - -
24/07:30am 22.7 NNW 15 19 1010.8 - 1.6 - - - - - - -
24/07:00am 22.5 N 16 20 1010.4 - 1.6 - - - - - - -
24/06:30am 22.4 N 15 18 1010.0 - 1.6 - - - - - - -
24/06:00am 22.4 N 15 18 1009.7 - 1.6 - - - - - - -
24/05:30am 22.4 N 12 15 1009.5 - 1.6 - - - - - - -
24/05:00am 22.5 N 14 20 1009.0 - 1.6 - - - - - - -
24/04:30am 22.4 N 14 17 1008.8 - 1.4 - - - - - - -
24/04:00am 22.4 N 15 19 1008.9 - 1.4 - - - - - - -
24/03:30am 22.3 N 11 14 1009.2 - 1.4 - - - - - - -
24/03:00am 22.3 N 12 16 1009.4 - 1.4 - - - - - - -
24/02:30am 22.1 N 13 18 1009.8 - 1.4 - - - - - - -
24/02:00am 22.2 N 11 15 1010.3 - 1.4 - - - - - - -
24/01:30am 22.2 N 12 16 1010.4 - 1.4 - - - - - - -
24/01:00am 22.1 N 9 14 1010.9 - 1.4 - - - - - - -
24/12:30am 21.9 NNE 8 12 1011.1 - 1.4 - - - - - - -
24/12:00am 22.0 N 9 14 1011.5 - 1.4 - - - - - - -
 
Date/Time
EST
Temp
°C
Wind Pressure Rain since
9am
mm
Weather Cloud Vis
km
Sea
Height
m
Swell
Dir  Spd
kts
Gust
kts
hPa Trend Height
m
Period
s
Dir
23/11:30pm 22.1 NNE 6 11 1011.7 - 1.4 - - - - - - -
23/11:00pm 22.1 NNE 7 11 1012.2 - 1.4 - - - - - - -
23/10:30pm 22.2 NNE 5 9 1012.5 - 0.2 - - - - - - -
23/10:00pm 21.9 NNE 6 8 1013.0 - 0.2 - - - - - - -
23/09:30pm 21.9 NNE 9 13 1013.1 - 0.2 - - - - - - -
23/09:00pm 22.5 NNE 5 8 1013.2 - 0.2 - - - - - - -
23/08:30pm 22.5 NNE 5 8 1013.3 - 0.2 - - - - - - -
23/08:00pm 22.5 NNE 6 9 1013.2 - 0.2 - - - - - - -
23/07:30pm 22.3 NNE 6 8 1013.1 - 0.2 - - - - - - -
23/07:00pm 22.3 NNE 6 9 1012.9 - 0.2 - - - - - - -
23/06:30pm 22.3 NNE 6 8 1012.8 - 0.2 - - - - - - -
23/06:00pm 22.4 NNE 6 9 1012.9 - 0.2 Recent precip. - - - - - -
23/05:30pm 22.6 NNE 5 9 1012.6 - 0.2 - - - - - - -
23/05:00pm 23.0 NNE 7 10 1012.5 - 0.0 - - - - - - -
23/04:30pm 23.4 NNE 7 11 1012.2 - 0.0 - - - - - - -
23/04:00pm 23.5 NNE 6 9 1012.1 - 0.0 - - - - - - -
23/03:30pm 24.0 NNE 5 7 1012.0 - 0.0 - - - - - - -
23/03:00pm 23.7 NNE 6 9 1012.0 - 0.0 - - - - - - -
23/02:30pm 23.9 NNE 8 13 1012.0 - 0.0 - - - - - - -
23/02:00pm 24.5 NNE 7 11 1012.3 - 0.0 - - - - - - -
23/01:30pm 25.6 NNE 7 11 1012.4 - 0.0 - - - - - - -
23/01:00pm 25.5 NNE 9 12 1012.6 - 0.0 - - - - - - -
23/12:30pm 25.8 NNE 7 10 1013.1 - 0.0 - - - - - - -
23/12:00pm 25.8 NNE 8 11 1013.5 - 0.0 - - - - - - -

Other Formats:

Comma delimited format used in spreadsheet applications
http://www.bom.gov.au/fwo/IDQ60701/IDQ60701.94388.axf

JavaScript Object Notation format (JSON) in row-major order
http://www.bom.gov.au/fwo/IDQ60701/IDQ60701.94388.json